Time;durP1;ratioP1;P1;durP2;ratioP2;P2;SDS_P1;SDS_P2;PMS_P1;PMS_P2;Temp;Humidity;BMP_temperature;BMP_pressure;BME280_temperature;BME280_humidity;BME280_pressure;Samples;Min_cycle;Max_cycle;Signal;HPM_P1;HPM_P2
2022/06/13 00:00:30;;;;;;;7.07;6.37;;;14.70;99.90;15.80;97063.00;;;;5089506;28;20203;-65
2022/06/13 00:03:19;;;;;;;5.77;5.23;;;14.70;99.90;15.60;97058.00;;;;5090400;28;20602;-65
2022/06/13 00:06:08;;;;;;;6.60;6.00;;;14.70;99.90;15.60;97054.00;;;;5089324;28;20191;-65
2022/06/13 00:08:57;;;;;;;6.50;6.00;;;14.60;99.90;15.10;97051.00;;;;5090095;28;20230;-65
2022/06/13 00:11:46;;;;;;;6.33;5.90;;;14.50;99.90;15.40;97044.00;;;;5085468;28;20202;-65
2022/06/13 00:14:35;;;;;;;7.00;6.30;;;14.50;99.90;15.70;97043.00;;;;5090413;28;20309;-65
2022/06/13 00:17:25;;;;;;;6.90;6.30;;;14.50;99.90;15.50;97042.00;;;;5086256;28;20199;-65
2022/06/13 00:20:15;;;;;;;6.27;5.77;;;14.50;99.90;14.90;97037.00;;;;5083825;28;20216;-65
2022/06/13 00:23:04;;;;;;;7.47;5.83;;;14.40;99.90;15.20;97032.00;;;;5089252;28;20215;-65
2022/06/13 00:25:53;;;;;;;9.47;5.90;;;14.30;99.90;15.20;97030.00;;;;5089915;28;20226;-65
2022/06/13 00:28:41;;;;;;;6.93;6.33;;;14.00;99.90;15.30;97030.00;;;;5089721;28;20235;-65
2022/06/13 00:31:31;;;;;;;8.07;6.17;;;14.30;99.90;15.00;97033.00;;;;5089665;28;20825;-65
2022/06/13 00:34:21;;;;;;;7.20;6.60;;;14.20;99.90;15.30;97030.00;;;;5077404;28;20674;-65
2022/06/13 00:37:10;;;;;;;10.40;5.80;;;13.80;99.90;15.60;97026.00;;;;5087778;28;20215;-65
2022/06/13 00:39:59;;;;;;;6.43;5.83;;;14.20;99.90;15.60;97023.00;;;;5084807;28;20304;-64
2022/06/13 00:42:48;;;;;;;9.30;7.73;;;14.30;99.90;15.50;97025.00;;;;5088798;28;20563;-65
2022/06/13 00:45:38;;;;;;;7.03;6.37;;;14.30;99.90;15.20;97018.00;;;;5089552;28;20223;-65
2022/06/13 00:48:32;;;;;;;6.77;6.17;;;14.30;99.90;14.80;97015.00;;;;5089466;28;20215;-65
2022/06/13 00:51:23;;;;;;;6.70;6.20;;;14.20;99.90;15.10;97015.00;;;;5088325;28;20844;-65
2022/06/13 00:54:13;;;;;;;8.17;6.33;;;14.10;99.90;15.00;97012.00;;;;5089159;28;20196;-65
2022/06/13 00:57:02;;;;;;;6.17;5.63;;;14.10;99.90;14.80;97003.00;;;;5084124;28;20203;-65
2022/06/13 00:59:55;;;;;;;6.87;6.27;;;14.00;99.90;14.80;97015.00;;;;5089151;28;20220;-65
2022/06/13 01:02:47;;;;;;;7.27;6.13;;;13.90;99.90;14.90;97006.00;;;;5084076;28;20611;-65
2022/06/13 01:05:41;;;;;;;6.63;6.10;;;13.90;99.90;14.80;97005.00;;;;5081328;28;20192;-65
2022/06/13 01:08:37;;;;;;;7.23;6.27;;;13.90;99.90;14.70;96999.00;;;;5088356;28;20223;-65
2022/06/13 01:11:26;;;;;;;6.47;5.93;;;13.80;99.90;14.90;97005.00;;;;5089745;28;20195;-65
2022/06/13 01:14:46;;;;;;;6.63;6.13;;;13.80;99.90;14.90;97000.00;;;;5088658;28;20195;-65
2022/06/13 01:17:53;;;;;;;7.07;5.80;;;13.80;99.90;14.50;96997.00;;;;5085287;28;20203;-65
2022/06/13 01:21:00;;;;;;;6.00;5.50;;;13.80;99.90;14.80;96998.00;;;;5085098;28;20207;-65
2022/06/13 01:24:43;;;;;;;7.17;6.33;;;13.80;99.90;14.80;96986.00;;;;5088337;28;20210;-65
2022/06/13 01:28:03;;;;;;;7.73;5.73;;;13.80;99.90;14.60;96981.00;;;;5086225;28;20218;-65
2022/06/13 01:31:10;;;;;;;7.47;6.87;;;13.70;99.90;14.60;96982.00;;;;5090392;28;20554;-65
2022/06/13 01:34:11;;;;;;;9.43;7.10;;;13.70;99.90;14.60;96968.00;;;;5082305;28;20199;-65
2022/06/13 01:37:21;;;;;;;7.80;7.00;;;13.60;99.90;14.30;96970.00;;;;5078978;28;20204;-65
2022/06/13 01:40:20;;;;;;;6.90;6.33;;;13.60;99.90;14.40;96969.00;;;;5084407;28;20745;-65
2022/06/13 01:43:16;;;;;;;7.73;6.10;;;13.50;99.90;14.40;96965.00;;;;5079688;28;20689;-65
2022/06/13 01:46:11;;;;;;;7.67;6.97;;;13.50;99.90;14.40;96963.00;;;;5079436;28;20526;-65
2022/06/13 01:49:16;;;;;;;15.87;7.57;;;13.40;99.90;14.30;96952.00;;;;5087980;28;20219;-65
2022/06/13 01:52:15;;;;;;;7.37;6.60;;;13.40;99.90;14.30;96956.00;;;;5079270;28;20796;-65
2022/06/13 01:55:13;;;;;;;7.77;6.70;;;13.30;99.90;14.40;96947.00;;;;5088693;28;20227;-65
2022/06/13 01:58:09;;;;;;;7.37;6.77;;;13.40;99.90;14.50;96950.00;;;;5084390;28;20242;-65
2022/06/13 02:01:07;;;;;;;7.60;7.00;;;13.40;99.90;14.30;96942.00;;;;5088586;28;20210;-66
2022/06/13 02:04:07;;;;;;;7.70;7.03;;;13.40;99.90;14.10;96954.00;;;;5088453;28;20557;-65
2022/06/13 02:07:03;;;;;;;6.77;6.13;;;13.30;99.90;14.40;96950.00;;;;5088742;28;20207;-65
2022/06/13 02:09:59;;;;;;;7.53;6.23;;;13.30;99.90;14.40;96953.00;;;;5087459;28;20203;-65
2022/06/13 02:12:54;;;;;;;14.07;7.27;;;13.30;99.90;14.40;96947.00;;;;5086066;28;20203;-65
2022/06/13 02:15:50;;;;;;;7.97;7.17;;;13.30;99.90;14.70;96947.00;;;;5088295;28;20603;-65
2022/06/13 02:18:50;;;;;;;7.03;6.47;;;13.40;99.90;14.40;96945.00;;;;5086970;28;20242;-65
2022/06/13 02:21:45;;;;;;;6.73;6.03;;;13.40;99.90;14.60;96945.00;;;;5085326;28;20203;-65
2022/06/13 02:24:38;;;;;;;7.70;6.70;;;13.40;99.90;14.70;96947.00;;;;5085370;28;20226;-65
2022/06/13 02:27:33;;;;;;;6.77;6.00;;;13.50;99.90;14.20;96944.00;;;;5088096;28;20199;-65
2022/06/13 02:30:33;;;;;;;7.00;6.30;;;13.40;99.90;14.30;96938.00;;;;5087351;28;20200;-65
2022/06/13 02:33:29;;;;;;;7.60;6.87;;;13.30;99.90;14.40;96940.00;;;;5087118;28;20199;-65
2022/06/13 02:36:27;;;;;;;7.13;6.50;;;13.40;99.90;14.20;96934.00;;;;5087471;28;20226;-65
2022/06/13 02:39:23;;;;;;;8.33;6.90;;;13.30;99.90;14.20;96933.00;;;;5082185;28;20227;-65
2022/06/13 02:42:17;;;;;;;7.63;6.93;;;13.30;99.90;13.70;96935.00;;;;5088701;28;20199;-65
2022/06/13 02:45:15;;;;;;;12.07;7.83;;;13.20;99.90;13.90;96933.00;;;;5083804;28;20199;-65
2022/06/13 02:48:15;;;;;;;8.20;7.40;;;13.10;99.90;14.10;96935.00;;;;5081915;28;20234;-65
2022/06/13 02:51:12;;;;;;;8.30;6.67;;;13.10;99.90;13.80;96936.00;;;;5087317;28;20577;-65
2022/06/13 02:54:11;;;;;;;7.63;7.00;;;13.10;99.90;14.10;96939.00;;;;5087897;28;20199;-65
2022/06/13 02:57:27;;;;;;;8.63;7.17;;;13.10;99.90;13.90;96929.00;;;;5080608;28;20595;-65
2022/06/13 03:00:24;;;;;;;9.37;8.13;;;13.10;99.90;14.30;96930.00;;;;5083116;28;20253;-65
2022/06/13 03:03:20;;;;;;;8.80;7.33;;;13.10;99.90;14.40;96933.00;;;;5087335;28;20203;-65
2022/06/13 03:06:18;;;;;;;10.43;7.27;;;13.20;99.90;14.00;96932.00;;;;5084233;28;20195;-65
2022/06/13 03:09:15;;;;;;;7.80;7.03;;;13.10;99.90;14.00;96928.00;;;;5080670;28;20230;-65
2022/06/13 03:12:10;;;;;;;6.60;6.07;;;13.10;99.90;13.90;96930.00;;;;5079572;28;20196;-65
2022/06/13 03:15:05;;;;;;;7.70;6.90;;;13.00;99.90;13.70;96927.00;;;;5080302;28;20206;-65
2022/06/13 03:18:01;;;;;;;11.13;7.37;;;13.00;99.90;13.50;96930.00;;;;5087795;28;20706;-65
2022/06/13 03:20:56;;;;;;;10.07;8.03;;;12.90;99.90;13.20;96925.00;;;;5085433;28;20594;-65
2022/06/13 03:23:48;;;;;;;8.57;6.80;;;12.80;99.90;13.30;96927.00;;;;5087619;28;20214;-65
2022/06/13 03:26:46;;;;;;;9.90;7.37;;;12.70;99.90;13.70;96928.00;;;;5086401;28;20206;-64
2022/06/13 03:29:41;;;;;;;11.07;7.70;;;12.70;99.90;14.00;96917.00;;;;5076912;28;20219;-65
2022/06/13 03:32:35;;;;;;;8.07;7.30;;;12.80;99.90;13.90;96919.00;;;;5087840;28;20211;-65
2022/06/13 03:35:24;;;;;;;7.70;6.73;;;12.80;99.90;13.80;96923.00;;;;5079048;28;20203;-65
2022/06/13 03:38:21;;;;;;;10.00;7.50;;;12.80;99.90;13.80;96916.00;;;;5089531;28;20230;-65
2022/06/13 03:41:14;;;;;;;9.20;8.30;;;12.90;99.90;13.30;96909.00;;;;5088086;28;20674;-65
2022/06/13 03:44:12;;;;;;;12.63;7.50;;;12.80;99.90;13.70;96910.00;;;;5086922;28;20199;-65
2022/06/13 03:47:07;;;;;;;8.30;7.50;;;12.80;99.90;13.80;96921.00;;;;5091150;28;20210;-64
2022/06/13 03:50:06;;;;;;;9.17;8.10;;;12.80;99.90;13.50;96913.00;;;;5090933;28;20215;-64
2022/06/13 03:53:03;;;;;;;8.83;7.87;;;12.80;99.90;13.70;96910.00;;;;5090974;28;20200;-65
2022/06/13 03:56:01;;;;;;;8.30;7.60;;;12.80;99.90;14.10;96909.00;;;;5091117;28;20302;-65
2022/06/13 03:58:56;;;;;;;8.30;7.57;;;12.80;99.90;14.40;96894.00;;;;5086238;28;20245;-65
2022/06/13 04:01:52;;;;;;;9.97;8.97;;;13.00;99.90;14.20;96897.00;;;;5089102;28;20693;-65
2022/06/13 04:04:48;;;;;;;9.77;8.73;;;13.10;99.90;14.00;96900.00;;;;5089854;28;20200;-65
2022/06/13 04:07:39;;;;;;;17.83;14.87;;;13.10;99.90;14.00;96907.00;;;;5089109;28;20199;-65
2022/06/13 04:10:29;;;;;;;12.30;11.13;;;13.10;99.90;14.00;96890.00;;;;5088580;28;20199;-65
2022/06/13 04:13:51;;;;;;;9.37;8.47;;;13.20;99.90;14.30;96881.00;;;;5078910;28;20204;-65
2022/06/13 04:16:51;;;;;;;9.97;7.43;;;13.20;99.90;14.10;96883.00;;;;5083892;28;20227;-65
2022/06/13 04:19:53;;;;;;;8.90;8.00;;;13.20;99.90;14.30;96885.00;;;;5089046;28;20239;-64
2022/06/13 04:22:49;;;;;;;8.63;7.77;;;13.30;99.90;14.10;96883.00;;;;5087005;28;20605;-65
2022/06/13 04:25:46;;;;;;;8.50;7.70;;;13.30;99.90;14.40;96885.00;;;;5080428;28;20210;-64
2022/06/13 04:28:44;;;;;;;8.80;8.03;;;13.30;99.90;14.40;96879.00;;;;5089527;28;20238;-65
2022/06/13 04:31:34;;;;;;;7.93;7.23;;;13.40;99.90;14.70;96871.00;;;;5087579;28;20582;-65
2022/06/13 04:34:33;;;;;;;9.17;8.27;;;13.50;99.90;15.10;96868.00;;;;5078441;28;20570;-65
2022/06/13 04:37:24;;;;;;;14.63;8.73;;;13.70;99.90;15.30;96879.00;;;;5080144;28;20234;-64
2022/06/13 04:40:20;;;;;;;8.10;7.30;;;13.80;99.90;15.50;96871.00;;;;5081086;28;20215;-65
2022/06/13 04:43:13;;;;;;;7.90;7.20;;;14.00;99.90;15.70;96870.00;;;;5085925;28;20211;-64
2022/06/13 04:46:08;;;;;;;8.30;7.60;;;14.20;99.90;15.70;96865.00;;;;5089756;28;20200;-65
2022/06/13 04:49:04;;;;;;;7.77;7.07;;;14.30;99.90;15.80;96869.00;;;;5082075;28;20594;-65
2022/06/13 04:51:56;;;;;;;14.33;7.23;;;14.50;99.90;15.70;96865.00;;;;5084777;28;20207;-65
2022/06/13 04:54:52;;;;;;;7.93;7.23;;;14.60;99.90;15.90;96863.00;;;;5070838;28;20215;-65
2022/06/13 04:57:40;;;;;;;7.80;6.27;;;14.70;99.90;15.70;96866.00;;;;5082175;28;20228;-65
2022/06/13 05:00:32;;;;;;;6.33;5.73;;;14.70;99.90;15.80;96865.00;;;;5074227;28;20200;-65
2022/06/13 05:03:25;;;;;;;7.63;6.80;;;14.80;99.90;16.50;96866.00;;;;5081114;28;20199;-65
2022/06/13 05:06:24;;;;;;;7.03;6.33;;;14.90;99.90;16.90;96863.00;;;;5080203;28;20203;-65
2022/06/13 05:09:21;;;;;;;8.13;6.30;;;15.10;99.90;17.30;96866.00;;;;5081629;28;20734;-65
2022/06/13 05:12:15;;;;;;;5.63;5.13;;;15.30;99.90;17.60;96862.00;;;;5082452;28;20204;-65
2022/06/13 05:15:08;;;;;;;6.70;6.10;;;15.50;99.90;17.70;96862.00;;;;5072279;28;20272;-65
2022/06/13 05:18:39;;;;;;;7.70;5.70;;;15.80;99.90;17.60;96857.00;;;;5086767;28;20234;-65
2022/06/13 05:21:51;;;;;;;5.73;5.20;;;16.00;99.90;18.00;96852.00;;;;5069608;28;20206;-65
2022/06/13 05:25:09;;;;;;;5.87;4.60;;;16.20;99.90;18.30;96857.00;;;;5077852;28;20203;-65
2022/06/13 05:27:58;;;;;;;8.00;5.00;;;16.50;99.90;18.60;96861.00;;;;5086991;28;20232;-65
2022/06/13 05:30:49;;;;;;;7.13;5.20;;;16.70;99.90;18.70;96863.00;;;;5084138;28;20200;-66
2022/06/13 05:33:43;;;;;;;5.77;5.03;;;16.90;99.90;19.00;96854.00;;;;5076331;28;20210;-65
2022/06/13 05:36:32;;;;;;;4.90;4.50;;;17.10;99.90;19.40;96854.00;;;;5078588;28;20205;-65
2022/06/13 05:39:20;;;;;;;6.77;4.53;;;17.30;99.90;19.30;96857.00;;;;5081581;28;20600;-65
2022/06/13 05:42:13;;;;;;;5.57;4.33;;;17.50;99.90;19.80;96875.00;;;;5082860;28;20261;-66
2022/06/13 05:45:02;;;;;;;6.67;4.67;;;17.70;99.90;19.80;96874.00;;;;5076922;28;20206;-65
2022/06/13 05:47:53;;;;;;;5.07;4.67;;;17.90;99.90;19.70;96884.00;;;;5088316;28;20226;-65
2022/06/13 05:50:43;;;;;;;5.53;4.47;;;18.00;99.90;19.40;96880.00;;;;5073595;28;20203;-65
2022/06/13 05:53:32;;;;;;;5.80;4.73;;;18.10;99.90;19.50;96892.00;;;;5076116;28;20846;-65
2022/06/13 05:56:21;;;;;;;5.27;4.87;;;18.10;99.90;20.00;96896.00;;;;5072926;28;20571;-65
2022/06/13 05:59:11;;;;;;;6.27;4.73;;;18.20;99.90;19.80;96895.00;;;;5079623;28;20216;-66
2022/06/13 06:02:00;;;;;;;7.60;5.00;;;18.30;99.90;20.20;96892.00;;;;5074470;28;20206;-66
2022/06/13 06:04:49;;;;;;;5.60;5.10;;;18.40;99.90;19.70;96891.00;;;;5079487;28;20562;-66
2022/06/13 06:07:39;;;;;;;4.93;4.53;;;18.50;99.90;20.10;96890.00;;;;5071086;28;20225;-65
2022/06/13 06:10:32;;;;;;;6.67;4.77;;;18.60;99.90;20.10;96887.00;;;;5079098;28;20198;-65
2022/06/13 06:13:21;;;;;;;5.83;4.90;;;18.80;99.90;20.90;96890.00;;;;5085000;28;20564;-66
2022/06/13 06:16:16;;;;;;;5.47;3.87;;;19.00;99.90;21.30;96897.00;;;;5077519;28;20191;-66
2022/06/13 06:19:05;;;;;;;6.10;3.97;;;19.20;99.90;21.80;96902.00;;;;5074302;28;20280;-66
2022/06/13 06:21:54;;;;;;;4.37;3.97;;;19.50;99.90;22.10;96893.00;;;;5087919;28;20214;-66
2022/06/13 06:24:43;;;;;;;7.37;4.27;;;19.80;99.90;22.50;96897.00;;;;5088297;28;20199;-66
2022/06/13 06:27:32;;;;;;;4.03;3.50;;;20.10;99.90;22.90;96896.00;;;;5087832;28;20203;-66
2022/06/13 06:30:20;;;;;;;3.90;3.60;;;20.40;99.90;23.20;96895.00;;;;5088520;28;20207;-66
2022/06/13 06:33:13;;;;;;;5.27;4.07;;;20.70;99.90;23.40;96893.00;;;;5088761;28;20195;-66
2022/06/13 06:36:03;;;;;;;3.23;2.97;;;21.10;99.90;23.90;96892.00;;;;5080917;28;20203;-67
2022/06/13 06:38:51;;;;;;;4.83;4.03;;;21.40;99.90;24.10;96891.00;;;;5088337;28;20223;-66
2022/06/13 06:41:42;;;;;;;7.30;3.60;;;21.70;99.90;24.20;96897.00;;;;5088219;28;20579;-67
2022/06/13 06:44:31;;;;;;;4.23;3.83;;;21.90;99.90;23.90;96904.00;;;;5088576;28;20203;-66
2022/06/13 06:47:19;;;;;;;4.00;3.70;;;22.10;99.90;23.50;96916.00;;;;5088279;28;20210;-66
2022/06/13 06:50:14;;;;;;;5.50;3.63;;;22.10;99.90;23.70;96897.00;;;;5088977;28;20206;-66
2022/06/13 06:53:03;;;;;;;7.30;4.87;;;22.10;99.90;23.90;96902.00;;;;5088737;28;20206;-66
2022/06/13 07:02:05;;;;;;;4.77;3.47;;;22.20;99.90;23.90;96912.00;;;;5088166;28;20206;-66
2022/06/13 07:04:56;;;;;;;3.03;2.77;;;22.20;99.90;24.00;96909.00;;;;5086886;28;20203;-66
2022/06/13 07:07:46;;;;;;;4.40;3.50;;;22.30;99.90;24.30;96906.00;;;;5089545;28;20575;-66
2022/06/13 07:10:35;;;;;;;2.83;2.63;;;22.40;99.90;24.20;96913.00;;;;5093004;28;20710;-66
2022/06/13 07:13:23;;;;;;;6.03;3.43;;;22.50;99.90;24.30;96911.00;;;;5092481;28;20406;-66
2022/06/13 07:16:12;;;;;;;2.80;2.60;;;22.50;99.90;23.60;96902.00;;;;5092214;28;20210;-67
2022/06/13 07:19:01;;;;;;;4.93;2.87;;;22.50;99.00;24.20;96906.00;;;;5086074;28;20242;-66
2022/06/13 07:21:50;;;;;;;3.03;2.83;;;22.40;99.60;23.60;96896.00;;;;5091383;28;20203;-68
2022/06/13 07:24:40;;;;;;;3.67;2.63;;;22.40;97.80;23.80;96898.00;;;;5091774;28;20207;-67
2022/06/13 07:27:30;;;;;;;3.47;2.80;;;22.30;98.10;23.70;96899.00;;;;5090984;28;20203;-66
2022/06/13 07:30:23;;;;;;;2.70;2.50;;;22.20;97.40;23.70;96894.00;;;;5089929;28;20211;-66
2022/06/13 07:33:12;;;;;;;2.73;2.37;;;22.20;97.40;23.80;96877.00;;;;5091624;28;20587;-66
2022/06/13 07:36:00;;;;;;;2.80;2.60;;;22.10;97.60;23.80;96887.00;;;;5078005;28;20217;-66
2022/06/13 07:38:50;;;;;;;2.70;2.50;;;22.10;98.30;23.70;96874.00;;;;5091675;28;20227;-66
2022/06/13 07:41:41;;;;;;;3.03;2.57;;;22.00;99.80;23.80;96886.00;;;;5091888;28;20214;-66
2022/06/13 07:44:34;;;;;;;3.20;2.50;;;22.00;99.90;23.50;96885.00;;;;5090961;28;20210;-66
2022/06/13 07:47:25;;;;;;;3.60;2.53;;;22.00;99.90;23.70;96877.00;;;;5091752;28;20206;-66
2022/06/13 07:50:16;;;;;;;3.23;2.80;;;22.00;99.90;23.70;96879.00;;;;5091198;28;20207;-66
2022/06/13 07:53:05;;;;;;;3.10;2.80;;;22.00;99.90;23.40;96874.00;;;;5091337;28;20717;-66
2022/06/13 07:55:54;;;;;;;3.20;2.60;;;21.90;99.90;23.20;96864.00;;;;5091094;28;20215;-66
2022/06/13 07:58:47;;;;;;;3.37;3.07;;;21.90;99.90;23.60;96850.00;;;;5090813;28;20234;-66
2022/06/13 08:01:37;;;;;;;2.13;2.03;;;21.90;99.90;23.90;96846.00;;;;5090184;28;20203;-66
2022/06/13 08:04:26;;;;;;;2.87;2.57;;;22.00;99.90;24.40;96841.00;;;;5090842;28;20207;-66
2022/06/13 08:07:25;;;;;;;4.83;2.40;;;22.10;99.90;24.70;96842.00;;;;5092162;28;20274;-66
2022/06/13 08:10:15;;;;;;;2.93;2.30;;;22.30;99.90;24.80;96842.00;;;;5091192;28;20206;-66
2022/06/13 08:13:04;;;;;;;3.33;2.20;;;22.50;99.90;24.90;96847.00;;;;5091002;28;20200;-67
2022/06/13 08:15:54;;;;;;;3.97;2.37;;;22.70;99.90;25.20;96834.00;;;;5089949;28;20202;-66
2022/06/13 08:18:43;;;;;;;2.73;2.50;;;22.90;99.90;25.60;96820.00;;;;5085208;28;20829;-66
2022/06/13 08:21:35;;;;;;;2.17;2.00;;;23.10;99.90;25.80;96812.00;;;;5078907;28;20202;-66
2022/06/13 08:24:23;;;;;;;3.40;1.80;;;23.50;99.90;26.10;96819.00;;;;5091414;28;20210;-66
2022/06/13 08:27:12;;;;;;;2.20;2.00;;;23.70;98.50;26.70;96816.00;;;;5090627;28;20279;-66
2022/06/13 08:30:01;;;;;;;3.97;2.00;;;24.00;97.70;26.40;96822.00;;;;5081379;28;20214;-66
2022/06/13 08:32:51;;;;;;;3.43;2.30;;;24.30;94.80;26.80;96833.00;;;;5091443;28;20191;-66
2022/06/13 08:35:40;;;;;;;3.40;2.00;;;24.40;95.60;26.00;96839.00;;;;5082238;28;20651;-66
2022/06/13 08:38:29;;;;;;;2.13;1.93;;;24.50;93.10;26.60;96831.00;;;;5090331;28;20223;-66
2022/06/13 08:41:33;;;;;;;3.73;1.60;;;24.50;93.20;27.40;96847.00;;;;5089949;28;20204;-66
2022/06/13 08:44:48;;;;;;;1.90;1.80;;;24.90;94.10;27.50;96833.00;;;;5080941;28;20203;-66
2022/06/13 08:47:45;;;;;;;4.63;2.17;;;25.10;94.00;27.60;96828.00;;;;5090761;28;20251;-66
2022/06/13 08:50:41;;;;;;;1.93;1.83;;;25.30;93.50;27.80;96833.00;;;;5090188;28;20196;-66
2022/06/13 08:53:38;;;;;;;2.07;1.87;;;25.50;93.30;27.30;96829.00;;;;5089814;28;20199;-66
2022/06/13 08:56:32;;;;;;;3.80;2.40;;;25.50;91.60;26.90;96831.00;;;;5089742;28;20204;-66
2022/06/13 08:59:26;;;;;;;3.67;2.30;;;25.40;91.60;26.70;96836.00;;;;5090305;28;20232;-67
2022/06/13 09:02:22;;;;;;;3.47;1.90;;;25.30;90.80;26.40;96837.00;;;;5089897;28;20271;-66
2022/06/13 09:05:17;;;;;;;5.73;2.00;;;25.10;90.30;26.70;96839.00;;;;5089793;28;20212;-67
2022/06/13 09:08:15;;;;;;;2.97;2.17;;;24.90;90.70;26.40;96838.00;;;;5089109;28;20439;-66
2022/06/13 09:11:11;;;;;;;3.03;2.43;;;24.80;91.90;26.40;96838.00;;;;5090884;28;20208;-66
2022/06/13 09:14:09;;;;;;;2.20;2.00;;;24.70;92.60;26.50;96848.00;;;;5090431;28;20682;-67
2022/06/13 09:17:06;;;;;;;1.90;1.57;;;24.70;92.10;26.60;96849.00;;;;5089890;28;20199;-66
2022/06/13 09:20:04;;;;;;;3.17;1.63;;;24.70;92.20;26.70;96855.00;;;;5084683;28;20223;-67
2022/06/13 09:22:59;;;;;;;2.40;2.20;;;24.70;92.60;26.70;96841.00;;;;5089929;28;20196;-67
2022/06/13 09:25:59;;;;;;;1.63;1.53;;;24.70;93.20;26.90;96849.00;;;;5089810;28;20201;-67
2022/06/13 09:28:55;;;;;;;1.60;1.50;;;24.80;93.20;26.80;96853.00;;;;5091278;28;20223;-67
2022/06/13 09:31:46;;;;;;;1.57;1.47;;;24.80;92.10;26.60;96846.00;;;;5089309;28;20207;-67
2022/06/13 09:34:41;;;;;;;2.40;1.80;;;24.80;92.10;26.80;96848.00;;;;5077814;28;20203;-67
2022/06/13 09:37:38;;;;;;;1.73;1.47;;;24.80;92.10;26.60;96840.00;;;;5074707;28;20195;-67
2022/06/13 09:40:38;;;;;;;2.33;2.10;;;24.70;92.80;26.80;96850.00;;;;5090090;28;20220;-67
2022/06/13 09:43:44;;;;;;;2.50;1.53;;;24.80;93.50;26.70;96848.00;;;;5089595;28;20676;-67
2022/06/13 09:46:44;;;;;;;2.23;1.93;;;24.80;94.00;26.60;96843.00;;;;5089387;28;20204;-67
2022/06/13 09:49:46;;;;;;;5.10;1.63;;;24.80;93.30;26.60;96832.00;;;;5090257;28;20242;-67
2022/06/13 09:52:46;;;;;;;1.93;1.80;;;24.80;93.70;26.40;96838.00;;;;5088816;28;20191;-67
2022/06/13 09:55:44;;;;;;;4.07;1.80;;;24.70;94.50;26.40;96842.00;;;;5080921;28;20208;-66
2022/06/13 09:58:52;;;;;;;2.00;1.60;;;24.70;94.80;26.30;96831.00;;;;5087329;28;20215;-66
2022/06/13 10:01:48;;;;;;;3.00;1.80;;;24.60;95.60;26.20;96853.00;;;;5088689;28;20210;-66
2022/06/13 10:04:48;;;;;;;5.00;1.83;;;24.50;97.00;26.10;96857.00;;;;5088967;28;20213;-66
2022/06/13 10:07:46;;;;;;;2.00;1.90;;;23.50;96.70;25.90;96845.00;;;;5088217;28;20594;-66
2022/06/13 10:10:48;;;;;;;3.77;2.40;;;24.30;97.60;25.70;96856.00;;;;5080561;28;20208;-66
2022/06/13 10:13:53;;;;;;;3.60;2.00;;;24.10;97.80;25.70;96849.00;;;;5072317;28;20208;-66
2022/06/13 10:16:56;;;;;;;2.33;2.07;;;24.00;98.20;25.70;96855.00;;;;5086637;28;20211;-66
2022/06/13 10:19:57;;;;;;;2.40;2.20;;;23.90;97.90;25.60;96856.00;;;;5077298;28;20225;-66
2022/06/13 10:22:59;;;;;;;5.20;2.13;;;23.90;97.90;25.70;96844.00;;;;5084963;28;20202;-66
2022/06/13 10:25:59;;;;;;;2.70;2.50;;;23.80;98.80;25.80;96830.00;;;;5082830;28;20487;-66
2022/06/13 10:29:10;;;;;;;4.77;2.20;;;23.90;99.90;26.00;96845.00;;;;5084003;28;20215;-66
2022/06/13 10:32:16;;;;;;;1.73;1.50;;;24.00;99.90;26.10;96840.00;;;;5072097;28;20246;-66
2022/06/13 10:35:23;;;;;;;2.47;2.00;;;24.10;99.90;26.20;96840.00;;;;5072444;28;20204;-66
2022/06/13 10:38:40;;;;;;;2.40;1.90;;;24.10;99.90;26.10;96837.00;;;;5087839;28;20223;-66
2022/06/13 10:41:30;;;;;;;2.07;1.90;;;24.20;99.90;26.30;96841.00;;;;5080630;28;20246;-66
2022/06/13 10:44:21;;;;;;;2.10;1.90;;;24.30;99.90;26.20;96833.00;;;;5086934;28;20609;-66
2022/06/13 10:47:19;;;;;;;2.70;1.80;;;24.30;99.90;26.40;96822.00;;;;5075862;28;20214;-66
2022/06/13 10:50:12;;;;;;;1.90;1.80;;;24.40;99.90;26.60;96839.00;;;;5082490;28;20203;-66
2022/06/13 10:53:07;;;;;;;2.43;1.80;;;24.50;99.90;26.80;96836.00;;;;5077542;28;20207;-66
2022/06/13 10:55:59;;;;;;;1.93;1.77;;;24.60;99.90;26.80;96837.00;;;;5084838;28;20199;-66
2022/06/13 10:58:51;;;;;;;1.73;1.63;;;24.70;99.90;26.50;96842.00;;;;5077574;28;20227;-66
2022/06/13 11:01:58;;;;;;;2.87;2.67;;;24.70;99.90;26.50;96843.00;;;;5086178;28;20698;-66
2022/06/13 11:05:05;;;;;;;5.13;2.17;;;24.60;99.90;26.30;96827.00;;;;5086688;28;20204;-66
2022/06/13 11:08:00;;;;;;;2.20;2.00;;;24.60;99.90;26.20;96827.00;;;;5086712;28;20223;-66
2022/06/13 11:10:58;;;;;;;3.07;1.83;;;24.50;99.90;26.30;96822.00;;;;5088959;28;20207;-66
2022/06/13 11:13:56;;;;;;;2.13;1.93;;;24.50;99.90;26.10;96820.00;;;;5083744;28;20726;-66
2022/06/13 11:23:19;;;;;;;2.30;2.10;;;24.20;99.90;25.50;96798.00;;;;5088997;22;20235;-89
2022/06/13 11:27:39;;;;;;;4.93;1.97;;;24.00;99.90;25.50;96801.00;;;;5070738;28;20235;-89
2022/06/13 11:29:19;;;;;;;2.37;2.17;;;23.90;99.90;25.60;96793.00;;;;5074910;28;20216;-89
2022/06/13 11:32:25;;;;;;;3.43;2.07;;;23.80;99.90;25.60;96784.00;;;;5050420;28;20208;-90
2022/06/13 11:35:32;;;;;;;3.60;1.93;;;23.80;99.90;25.80;96783.00;;;;5069549;28;20219;-90
2022/06/13 11:38:24;;;;;;;3.53;2.43;;;23.80;99.90;26.10;96784.00;;;;5072132;28;20212;-90
2022/06/13 11:41:20;;;;;;;2.03;1.80;;;24.00;99.90;26.40;96781.00;;;;5064288;28;20659;-89
2022/06/13 11:44:13;;;;;;;3.13;2.83;;;24.10;99.90;26.50;96782.00;;;;5063136;28;20700;-90
2022/06/13 11:47:03;;;;;;;4.93;2.40;;;24.30;99.90;26.60;96776.00;;;;5052800;28;20207;-89
2022/06/13 11:49:58;;;;;;;4.37;2.50;;;24.50;99.90;26.90;96763.00;;;;5060514;28;20249;-89
2022/06/13 11:56:01;;;;;;;4.60;2.30;;;24.90;99.90;27.70;96759.00;;;;5076031;28;20227;-90
2022/06/13 11:58:53;;;;;;;2.23;1.90;;;25.20;99.90;28.00;96711.00;;;;5067600;28;20207;-90
2022/06/13 12:01:42;;;;;;;2.57;2.37;;;25.40;99.90;29.30;96698.00;;;;5056038;28;20224;-90
2022/06/13 12:04:32;;;;;;;2.37;2.17;;;26.10;99.90;29.20;96740.00;;;;5062920;28;20236;-89
2022/06/13 12:07:28;;;;;;;2.07;1.93;;;26.40;98.10;29.10;96743.00;;;;5074215;28;20209;-91
2022/06/13 12:10:22;;;;;;;2.17;2.07;;;26.60;96.70;29.70;96731.00;;;;5078655;28;20212;-90
2022/06/13 12:13:20;;;;;;;5.60;2.50;;;26.90;96.20;31.00;96672.00;;;;5074227;28;20203;-90
2022/06/13 12:16:29;;;;;;;2.40;2.10;;;27.50;97.30;32.00;96722.00;;;;5074017;28;20229;-91
2022/06/13 12:19:32;;;;;;;2.23;1.80;;;28.30;95.40;32.50;96679.00;;;;5054529;28;20364;-91
2022/06/13 12:22:30;;;;;;;2.70;1.95;;;28.90;93.80;32.90;96684.00;;;;5061336;28;20211;-91
2022/06/13 12:25:25;;;;;;;2.03;1.80;;;29.50;91.10;33.70;96674.00;;;;5066189;28;20302;-90
2022/06/13 12:28:17;;;;;;;3.00;2.30;;;30.10;89.40;34.40;96669.00;;;;5066851;28;20207;-90
2022/06/13 12:31:13;;;;;;;3.72;2.42;;;30.80;85.40;35.00;96669.00;;;;5059982;28;20777;-92
2022/06/13 12:34:19;;;;;;;4.63;2.53;;;31.30;81.60;34.70;96669.00;;;;5067608;28;20507;-91
2022/06/13 12:37:22;;;;;;;3.58;2.30;;;31.70;72.30;35.00;96662.00;;;;5059821;28;20598;-91
2022/06/13 12:40:28;;;;;;;3.78;2.47;;;31.90;69.10;35.00;96654.00;;;;5052851;28;20390;-91
2022/06/13 12:43:49;;;;;;;8.95;3.50;;;32.10;67.20;34.90;96720.00;;;;5051372;28;20397;-92
2022/06/13 12:47:22;;;;;;;9.75;4.10;;;32.30;65.10;33.80;96728.00;;;;5052322;28;20412;-90
2022/06/13 12:50:59;;;;;;;6.60;3.42;;;32.20;61.40;32.30;96739.00;;;;5053734;28;20398;-91
2022/06/13 12:54:22;;;;;;;7.38;3.38;;;31.30;62.40;31.00;96740.00;;;;4973442;28;20789;-89
2022/06/13 12:57:32;;;;;;;6.00;3.28;;;30.70;59.80;30.70;96747.00;;;;4976742;28;20401;-90
2022/06/13 13:00:27;;;;;;;8.52;2.83;;;29.90;61.90;30.20;96761.00;;;;5054985;28;20410;-89
2022/06/13 13:03:41;;;;;;;6.83;3.20;;;29.30;66.10;28.90;96782.00;;;;5053692;28;20504;-90
2022/06/13 13:06:40;;;;;;;8.13;3.63;;;28.70;70.70;27.20;96773.00;;;;5061605;28;20405;-90
2022/06/13 13:09:56;;;;;;;6.82;3.33;;;27.70;79.70;26.30;96776.00;;;;5060840;28;20759;-90
2022/06/13 13:13:10;;;;;;;8.75;3.75;;;26.90;88.70;25.60;96787.00;;;;5079558;28;20390;-91
2022/06/13 13:16:08;;;;;;;4.75;3.13;;;26.00;93.00;26.50;96779.00;;;;5056733;28;20398;-91
2022/06/13 13:19:21;;;;;;;7.18;2.58;;;25.60;99.70;26.80;96775.00;;;;5060009;28;20400;-89